createdAt,value
2023-02-12T00:01:09.878Z,65.78
2023-02-12T00:04:00.141Z,60.35
2023-02-12T00:06:50.521Z,61.78
2023-02-12T00:09:40.539Z,63.88
2023-02-12T00:12:30.721Z,66.47
2023-02-12T00:15:21.513Z,71.80
2023-02-12T00:18:11.998Z,65.10
2023-02-12T00:21:03.183Z,67.30
2023-02-12T00:23:53.446Z,64.32
2023-02-12T00:26:43.638Z,62.90
2023-02-12T00:29:33.716Z,66.70
2023-02-12T00:32:24.012Z,60.80
2023-02-12T00:35:13.986Z,62.58
2023-02-12T00:38:04.181Z,69.82
2023-02-12T00:40:54.312Z,74.13
2023-02-12T00:43:44.505Z,67.50
2023-02-12T00:46:35.133Z,62.55
2023-02-12T00:49:25.408Z,71.47
2023-02-12T00:52:15.506Z,62.60
2023-02-12T00:55:06.299Z,62.22
2023-02-12T00:57:56.039Z,64.00
2023-02-12T01:00:46.375Z,61.70
2023-02-12T01:03:36.682Z,67.28
2023-02-12T01:06:27.139Z,62.25
2023-02-12T01:09:17.281Z,60.30
2023-02-12T01:12:07.891Z,64.63
2023-02-12T01:14:59.545Z,65.30
2023-02-12T01:17:53.698Z,60.42
2023-02-12T01:20:44.013Z,61.53
2023-02-12T01:23:34.028Z,67.13
2023-02-12T01:26:26.541Z,66.10
2023-02-12T01:29:16.610Z,70.45
2023-02-12T01:32:07.205Z,67.47
2023-02-12T01:34:57.547Z,65.05
2023-02-12T01:37:47.810Z,62.55
2023-02-12T01:40:38.629Z,63.40
2023-02-12T01:43:28.703Z,58.05
2023-02-12T01:46:19.082Z,60.30
2023-02-12T01:49:18.678Z,68.15
2023-02-12T01:52:23.740Z,61.70
2023-02-12T01:55:15.808Z,61.20
2023-02-12T01:58:07.253Z,70.72
2023-02-12T02:01:00.534Z,66.93
2023-02-12T02:03:55.171Z,73.03
2023-02-12T02:06:51.700Z,64.30
2023-02-12T02:09:42.448Z,64.05
2023-02-12T02:12:51.212Z,64.78
2023-02-12T02:15:46.983Z,66.38
2023-02-12T02:18:49.096Z,65.75
2023-02-12T02:22:07.673Z,61.85
2023-02-12T02:25:25.904Z,70.70
2023-02-12T02:28:44.306Z,58.78
2023-02-12T02:31:44.463Z,66.10
2023-02-12T02:34:42.856Z,65.18
2023-02-12T02:37:40.614Z,60.97
2023-02-12T02:40:38.993Z,70.43
2023-02-12T02:43:36.258Z,77.10
2023-02-12T02:46:40.430Z,66.88
2023-02-12T02:49:40.434Z,72.28
2023-02-12T02:52:43.112Z,66.82
2023-02-12T02:55:39.455Z,67.05
2023-02-12T02:58:38.971Z,64.32
2023-02-12T03:01:36.592Z,61.53
2023-02-12T03:04:38.976Z,62.65
2023-02-12T03:07:35.879Z,66.97
2023-02-12T03:10:34.613Z,60.63
2023-02-12T03:13:32.535Z,68.25
2023-02-12T03:16:27.642Z,71.97
2023-02-12T03:19:22.595Z,70.88
2023-02-12T03:22:18.380Z,67.47
2023-02-12T03:25:18.065Z,62.63
2023-02-12T03:28:20.519Z,66.72
2023-02-12T03:31:37.969Z,62.85
2023-02-12T03:34:39.527Z,65.57
2023-02-12T03:37:36.501Z,64.00
2023-02-12T03:40:34.940Z,72.15
2023-02-12T03:43:33.575Z,66.80
2023-02-12T03:46:33.760Z,61.35
2023-02-12T03:49:32.565Z,65.13
2023-02-12T03:52:22.836Z,67.28
2023-02-12T03:55:13.783Z,66.50
2023-02-12T03:58:08.682Z,67.40
2023-02-12T04:01:00.154Z,66.20
2023-02-12T04:03:50.788Z,66.10
2023-02-12T04:06:41.458Z,64.43
2023-02-12T04:09:32.300Z,65.95
2023-02-12T04:12:44.093Z,70.88
2023-02-12T04:15:43.678Z,68.32
2023-02-12T04:18:45.765Z,64.10
2023-02-12T04:21:35.790Z,68.82
2023-02-12T04:24:58.964Z,68.75
2023-02-12T04:28:09.348Z,63.42
2023-02-12T04:31:06.075Z,58.67
2023-02-12T04:34:22.192Z,70.68
2023-02-12T04:37:23.077Z,67.03
2023-02-12T04:40:17.158Z,67.57
2023-02-12T04:43:08.128Z,72.00
2023-02-12T04:45:58.666Z,65.07
2023-02-12T04:48:56.796Z,63.58
2023-02-12T04:51:47.796Z,61.60
2023-02-12T04:54:38.595Z,68.55
2023-02-12T04:57:29.093Z,65.60
2023-02-12T05:00:19.485Z,63.33
2023-02-12T05:03:09.939Z,66.90
2023-02-12T05:06:07.760Z,66.03
2023-02-12T05:08:58.081Z,65.53
2023-02-12T05:11:48.215Z,67.97
2023-02-12T05:14:38.732Z,64.15
2023-02-12T05:17:28.834Z,70.15
2023-02-12T05:20:19.001Z,64.28
2023-02-12T05:23:09.266Z,68.20
2023-02-12T05:26:01.709Z,69.25
2023-02-12T05:28:51.535Z,62.88
2023-02-12T05:31:41.842Z,71.35
2023-02-12T05:34:32.543Z,64.68
2023-02-12T05:37:22.372Z,69.00
2023-02-12T05:40:12.682Z,66.80
2023-02-12T05:43:03.111Z,65.18
2023-02-12T05:45:53.622Z,66.93
2023-02-12T05:48:44.226Z,66.88
2023-02-12T05:51:35.095Z,67.65
2023-02-12T05:54:25.361Z,65.47
2023-02-12T05:57:15.696Z,67.22
2023-02-12T06:00:07.713Z,65.88
2023-02-12T06:03:02.533Z,65.57
2023-02-12T06:05:52.996Z,66.63
2023-02-12T06:08:43.416Z,65.35
2023-02-12T06:11:33.582Z,63.00
2023-02-12T06:14:23.486Z,67.95
2023-02-12T06:17:13.576Z,68.15
2023-02-12T06:20:04.618Z,64.25
2023-02-12T06:22:54.948Z,68.43
2023-02-12T06:25:45.358Z,71.05
2023-02-12T06:28:36.112Z,77.82
2023-02-12T06:31:29.902Z,65.22
2023-02-12T06:34:20.428Z,68.22
2023-02-12T06:37:12.263Z,56.67
2023-02-12T06:40:02.739Z,60.08
2023-02-12T06:42:52.733Z,66.63
2023-02-12T06:45:42.741Z,67.38
2023-02-12T06:48:33.536Z,59.22
2023-02-12T06:51:25.334Z,69.65
2023-02-12T06:54:18.191Z,72.22
2023-02-12T06:57:07.988Z,74.53
2023-02-12T06:59:58.223Z,60.45
2023-02-12T07:02:56.044Z,67.10
2023-02-12T07:05:46.219Z,66.53
2023-02-12T07:08:36.593Z,64.30
2023-02-12T07:11:30.580Z,72.55
2023-02-12T07:14:21.176Z,68.65
2023-02-12T07:17:11.380Z,70.10
2023-02-12T07:20:02.246Z,68.28
2023-02-12T07:22:52.614Z,65.72
2023-02-12T07:25:42.918Z,68.65
2023-02-12T07:28:34.077Z,68.28
2023-02-12T07:31:24.703Z,69.68
2023-02-12T07:34:14.929Z,73.15
2023-02-12T07:37:06.941Z,69.18
2023-02-12T07:39:57.166Z,67.68
2023-02-12T07:42:49.993Z,66.05
2023-02-12T07:45:40.897Z,67.38
2023-02-12T07:48:31.323Z,68.38
2023-02-12T07:51:21.171Z,66.88
2023-02-12T07:54:12.103Z,68.18
2023-02-12T07:57:02.093Z,63.63
2023-02-12T07:59:52.729Z,80.45
2023-02-12T08:02:42.869Z,69.28
2023-02-12T08:05:33.068Z,77.78
2023-02-12T08:08:23.027Z,74.35
2023-02-12T08:11:14.650Z,76.97
2023-02-12T08:14:05.304Z,70.20
2023-02-12T08:16:55.872Z,75.97
2023-02-12T08:19:46.296Z,73.05
2023-02-12T08:22:36.890Z,68.35
2023-02-12T08:25:27.264Z,70.10
2023-02-12T08:28:17.304Z,73.03
2023-02-12T08:31:11.275Z,67.93
2023-02-12T08:34:02.136Z,71.30
2023-02-12T08:36:54.299Z,68.85
2023-02-12T08:39:44.581Z,73.50
2023-02-12T08:42:34.451Z,77.18
2023-02-12T08:45:27.448Z,71.35
2023-02-12T08:48:17.808Z,68.00
2023-02-12T08:51:16.482Z,86.07
2023-02-12T08:54:10.781Z,70.38
2023-02-12T08:57:03.665Z,80.68
2023-02-12T08:59:54.169Z,74.05
2023-02-12T09:02:44.548Z,68.78
2023-02-12T09:05:38.931Z,67.70
2023-02-12T09:08:29.046Z,70.70
2023-02-12T09:11:24.465Z,65.35
2023-02-12T09:14:16.885Z,68.75
2023-02-12T09:17:07.430Z,66.80
2023-02-12T09:19:57.591Z,74.18
2023-02-12T09:22:48.028Z,71.40
2023-02-12T09:25:43.380Z,73.97
2023-02-12T09:28:34.247Z,68.63
2023-02-12T09:31:29.783Z,63.35
2023-02-12T09:34:20.217Z,70.03
2023-02-12T09:37:10.421Z,64.47
2023-02-12T09:40:00.772Z,64.88
2023-02-12T09:42:55.924Z,62.45
2023-02-12T09:45:58.490Z,64.70
2023-02-12T09:49:07.510Z,67.47
2023-02-12T09:51:58.384Z,67.18
2023-02-12T09:54:49.759Z,65.55
2023-02-12T09:57:40.317Z,72.30
2023-02-12T10:00:32.001Z,67.28
2023-02-12T10:03:22.553Z,61.80
2023-02-12T10:06:22.367Z,61.40
2023-02-12T10:09:24.046Z,64.07
2023-02-12T10:12:26.808Z,66.03
2023-02-12T10:15:24.181Z,69.55
2023-02-12T10:18:30.902Z,62.42
2023-02-12T10:21:51.983Z,59.00
2023-02-12T10:24:49.312Z,65.53
2023-02-12T10:27:45.855Z,63.35
2023-02-12T10:30:44.684Z,68.30
2023-02-12T10:33:39.454Z,60.72
2023-02-12T10:36:42.236Z,67.65
2023-02-12T10:39:37.123Z,59.58
2023-02-12T10:42:44.279Z,52.83
2023-02-12T10:45:37.738Z,31.60
2023-02-12T10:48:40.702Z,20.65
2023-02-12T10:51:43.488Z,15.60
2023-02-12T10:54:41.521Z,14.30
2023-02-12T10:57:33.030Z,13.15
2023-02-12T11:00:33.251Z,15.98
2023-02-12T11:03:29.305Z,14.70
2023-02-12T11:06:25.885Z,14.27
2023-02-12T11:09:29.435Z,57.78
2023-02-12T11:12:33.335Z,15.75
2023-02-12T11:15:37.467Z,15.90
2023-02-12T11:18:35.024Z,11.43
2023-02-12T11:21:25.392Z,12.52
2023-02-12T11:24:31.887Z,16.58
2023-02-12T11:27:26.065Z,13.95
2023-02-12T11:30:18.590Z,13.88
2023-02-12T11:33:30.948Z,12.52
2023-02-12T11:36:25.718Z,15.52
2023-02-12T11:39:21.555Z,12.93
2023-02-12T11:42:22.462Z,15.90
2023-02-12T11:45:18.433Z,12.25
2023-02-12T11:48:23.492Z,13.48
2023-02-12T11:51:25.017Z,11.68
2023-02-12T11:54:26.861Z,11.60
2023-02-12T11:57:36.806Z,11.20
2023-02-12T12:00:33.383Z,12.68
2023-02-12T12:03:45.355Z,9.98
2023-02-12T12:06:44.237Z,11.85
2023-02-12T12:09:43.795Z,24.00
2023-02-12T12:12:45.799Z,38.53
2023-02-12T12:16:03.609Z,15.10
2023-02-12T12:19:17.866Z,10.13
2023-02-12T12:22:20.880Z,75.88
2023-02-12T12:25:23.255Z,19.13
2023-02-12T12:28:31.885Z,17.77
2023-02-12T12:31:22.262Z,12.07
2023-02-12T12:34:17.286Z,8.65
2023-02-12T12:37:30.061Z,10.48
2023-02-12T12:40:39.237Z,7.45
2023-02-12T12:43:46.456Z,6.57
2023-02-12T12:46:48.021Z,7.25
2023-02-12T12:49:49.473Z,8.57
2023-02-12T12:52:54.005Z,5.50
2023-02-12T12:56:21.579Z,6.93
2023-02-12T12:59:49.477Z,7.45
2023-02-12T13:03:05.294Z,5.95
2023-02-12T13:06:29.144Z,6.90
2023-02-12T13:09:38.065Z,7.05
2023-02-12T13:12:50.205Z,5.05
2023-02-12T13:16:23.333Z,9.32
2023-02-12T13:19:37.154Z,9.88
2023-02-12T13:22:51.443Z,7.75
2023-02-12T13:26:04.930Z,5.95
2023-02-12T13:29:09.873Z,7.35
2023-02-12T13:32:12.332Z,6.00
2023-02-12T13:35:06.268Z,12.10
2023-02-12T13:37:57.353Z,6.93
2023-02-12T13:40:49.791Z,9.48
2023-02-12T13:44:15.651Z,9.45
2023-02-12T13:47:30.113Z,10.07
2023-02-12T13:50:48.191Z,11.85
2023-02-12T13:54:00.005Z,8.50
2023-02-12T13:56:56.282Z,10.48
2023-02-12T13:59:48.909Z,11.73
2023-02-12T14:02:39.109Z,11.15
2023-02-12T14:05:31.250Z,10.63
2023-02-12T14:08:40.056Z,9.82
2023-02-12T14:11:30.678Z,11.13
2023-02-12T14:14:34.489Z,9.95
2023-02-12T14:17:30.950Z,10.45
2023-02-12T14:20:34.725Z,13.02
2023-02-12T14:23:28.196Z,9.02
2023-02-12T14:26:20.415Z,10.55
2023-02-12T14:29:21.086Z,10.65
2023-02-12T14:32:58.052Z,9.30
2023-02-12T14:36:09.283Z,10.70
2023-02-12T14:39:01.069Z,10.98
2023-02-12T14:41:57.378Z,11.50
2023-02-12T14:44:58.012Z,8.43
2023-02-12T14:47:48.162Z,8.95
2023-02-12T14:50:50.404Z,9.05
2023-02-12T14:53:41.060Z,8.60
2023-02-12T14:56:39.800Z,8.85
2023-02-12T14:59:36.271Z,6.63
2023-02-12T15:02:29.085Z,9.13
2023-02-12T15:05:25.325Z,9.07
2023-02-12T15:08:42.704Z,11.50
2023-02-12T15:11:32.788Z,10.75
2023-02-12T15:14:34.948Z,9.45
2023-02-12T15:17:29.893Z,9.18
2023-02-12T15:20:23.631Z,12.32
2023-02-12T15:23:33.056Z,10.60
2023-02-12T15:26:25.793Z,9.68
2023-02-12T15:29:27.633Z,10.90
2023-02-12T15:32:38.494Z,11.10
2023-02-12T15:35:39.690Z,10.35
2023-02-12T15:38:32.456Z,9.50
2023-02-12T15:41:31.868Z,9.35
2023-02-12T15:44:31.718Z,6.47
2023-02-12T15:47:24.832Z,7.63
2023-02-12T15:50:18.108Z,7.47
2023-02-12T15:53:08.952Z,7.80
2023-02-12T15:56:01.003Z,7.80
2023-02-12T15:58:53.786Z,9.98
2023-02-12T16:01:55.341Z,7.32
2023-02-12T16:04:47.102Z,7.65
2023-02-12T16:07:39.475Z,6.82
2023-02-12T16:10:34.700Z,5.78
2023-02-12T16:13:36.807Z,6.80
2023-02-12T16:16:54.796Z,7.78
2023-02-12T16:19:54.819Z,4.95
2023-02-12T16:22:49.367Z,5.90
2023-02-12T16:25:43.283Z,5.30
2023-02-12T16:28:37.283Z,5.63
2023-02-12T16:31:28.214Z,5.32
2023-02-12T16:34:33.516Z,6.47
2023-02-12T16:37:38.948Z,5.78
2023-02-12T16:40:36.996Z,6.70
2023-02-12T16:43:27.460Z,6.75
2023-02-12T16:46:18.872Z,10.68
2023-02-12T16:49:26.854Z,6.25
2023-02-12T16:52:34.438Z,8.27
2023-02-12T16:55:24.729Z,7.47
2023-02-12T16:58:15.261Z,7.72
2023-02-12T17:01:05.445Z,8.35
2023-02-12T17:03:57.794Z,5.15
2023-02-12T17:06:47.894Z,8.07
2023-02-12T17:09:38.373Z,9.18
2023-02-12T17:12:28.919Z,7.70
2023-02-12T17:15:24.734Z,6.18
2023-02-12T17:18:15.602Z,7.85
2023-02-12T17:21:09.563Z,8.73
2023-02-12T17:24:00.140Z,8.57
2023-02-12T17:26:51.472Z,7.97
2023-02-12T17:29:41.726Z,7.22
2023-02-12T17:32:31.959Z,8.82
2023-02-12T17:35:22.368Z,7.97
2023-02-12T17:38:12.677Z,9.63
2023-02-12T17:41:02.823Z,10.20
2023-02-12T17:43:53.309Z,8.23
2023-02-12T17:46:43.671Z,10.00
2023-02-12T17:49:35.528Z,9.38
2023-02-12T17:52:26.044Z,11.35
2023-02-12T17:55:17.771Z,9.88
2023-02-12T17:58:08.275Z,10.20
2023-02-12T18:01:04.660Z,11.82
2023-02-12T18:04:03.886Z,10.35
2023-02-12T18:07:14.193Z,11.45
2023-02-12T18:10:06.825Z,10.55
2023-02-12T18:12:57.418Z,15.70
2023-02-12T18:15:47.403Z,11.95
2023-02-12T18:18:40.128Z,9.90
2023-02-12T18:21:30.533Z,11.48
2023-02-12T18:24:20.951Z,10.95
2023-02-12T18:27:12.477Z,28.02
2023-02-12T18:30:03.004Z,29.05
2023-02-12T18:32:53.140Z,28.02
2023-02-12T18:35:43.708Z,17.38
2023-02-12T18:38:35.719Z,18.65
2023-02-12T18:41:28.284Z,32.20
2023-02-12T18:44:18.881Z,21.15
2023-02-12T18:47:09.387Z,16.25
2023-02-12T18:49:59.912Z,15.32
2023-02-12T18:52:50.177Z,16.63
2023-02-12T18:55:40.168Z,21.20
2023-02-12T18:58:30.301Z,21.95
2023-02-12T19:01:20.766Z,18.90
2023-02-12T19:04:12.841Z,19.13
2023-02-12T19:07:02.752Z,18.58
2023-02-12T19:09:52.801Z,15.88
2023-02-12T19:12:43.022Z,15.52
2023-02-12T19:15:33.196Z,14.82
2023-02-12T19:18:24.504Z,15.88
2023-02-12T19:21:18.710Z,14.57
2023-02-12T19:27:01.506Z,16.25
2023-02-12T19:29:51.901Z,16.17
2023-02-12T19:32:42.046Z,18.38
2023-02-12T19:35:35.711Z,17.40
2023-02-12T19:38:26.176Z,17.58
2023-02-12T19:41:48.435Z,17.25
2023-02-12T19:44:40.708Z,20.85
2023-02-12T19:47:35.309Z,15.55
2023-02-12T19:50:28.628Z,16.55
2023-02-12T19:53:19.080Z,21.83
2023-02-12T19:56:10.723Z,20.42
2023-02-12T19:59:01.758Z,19.38
2023-02-12T20:01:52.578Z,25.20
2023-02-12T20:04:47.277Z,25.33
2023-02-12T20:07:37.291Z,20.90
2023-02-12T20:10:27.758Z,21.13
2023-02-12T20:13:19.814Z,20.98
2023-02-12T20:16:13.453Z,23.80
2023-02-12T20:19:10.239Z,24.50
2023-02-12T20:22:01.698Z,25.48
2023-02-12T20:24:52.247Z,21.02
2023-02-12T20:27:42.703Z,23.60
2023-02-12T20:30:33.062Z,25.25
2023-02-12T20:33:23.729Z,24.23
2023-02-12T20:36:34.511Z,23.85
2023-02-12T20:39:34.240Z,21.92
2023-02-12T20:42:28.199Z,24.27
2023-02-12T20:45:31.477Z,24.50
2023-02-12T20:48:22.088Z,26.75
2023-02-12T20:51:21.511Z,24.80
2023-02-12T20:54:18.579Z,24.23
2023-02-12T20:57:08.985Z,30.90
2023-02-12T20:59:59.259Z,32.30
2023-02-12T21:02:50.703Z,25.98
2023-02-12T21:05:40.841Z,31.58
2023-02-12T21:08:31.723Z,28.48
2023-02-12T21:11:25.111Z,30.60
2023-02-12T21:14:24.596Z,31.00
2023-02-12T21:17:14.742Z,34.78
2023-02-12T21:20:07.044Z,32.55
2023-02-12T21:22:56.898Z,33.17
2023-02-12T21:25:46.720Z,29.00
2023-02-12T21:28:37.088Z,33.13
2023-02-12T21:31:30.105Z,32.80
2023-02-12T21:34:22.672Z,34.05
2023-02-12T21:37:12.698Z,39.45
2023-02-12T21:40:03.403Z,37.13
2023-02-12T21:42:53.184Z,36.58
2023-02-12T21:45:52.711Z,33.50
2023-02-12T21:48:44.154Z,29.52
2023-02-12T21:51:37.099Z,41.90
2023-02-12T21:54:29.014Z,37.83
2023-02-12T21:57:21.735Z,36.25
2023-02-12T22:00:12.593Z,38.65
2023-02-12T22:03:02.737Z,34.60
2023-02-12T22:05:53.079Z,30.75
2023-02-12T22:08:43.385Z,35.10
2023-02-12T22:11:34.986Z,31.00
2023-02-12T22:14:25.223Z,33.13
2023-02-12T22:17:15.047Z,34.85
2023-02-12T22:20:06.023Z,30.75
2023-02-12T22:22:56.031Z,35.97
2023-02-12T22:25:46.506Z,31.42
2023-02-12T22:28:42.277Z,35.95
2023-02-12T22:31:34.642Z,35.60
2023-02-12T22:34:24.781Z,35.78
2023-02-12T22:37:15.357Z,35.70
2023-02-12T22:40:06.457Z,38.95
2023-02-12T22:42:56.622Z,31.88
2023-02-12T22:45:46.741Z,35.97
2023-02-12T22:48:36.730Z,34.97
2023-02-12T22:51:29.924Z,35.30
2023-02-12T22:54:20.830Z,37.78
2023-02-12T22:57:10.810Z,32.83
2023-02-12T23:00:00.733Z,37.63
2023-02-12T23:02:51.293Z,37.30
2023-02-12T23:05:41.662Z,32.08
2023-02-12T23:08:32.438Z,34.35
2023-02-12T23:11:24.697Z,39.47
2023-02-12T23:14:14.896Z,40.05
2023-02-12T23:17:05.588Z,40.45
2023-02-12T23:19:55.924Z,36.50
2023-02-12T23:22:45.742Z,35.33
2023-02-12T23:25:35.973Z,34.97
2023-02-12T23:28:26.260Z,31.35
2023-02-12T23:31:16.819Z,39.40
2023-02-12T23:34:07.208Z,34.15
2023-02-12T23:36:57.694Z,34.60
2023-02-12T23:39:47.659Z,33.92
2023-02-12T23:42:37.615Z,36.72
2023-02-12T23:45:28.347Z,32.97
2023-02-12T23:48:18.877Z,36.95
2023-02-12T23:51:08.778Z,35.85
2023-02-12T23:53:59.215Z,33.35
2023-02-12T23:56:49.202Z,36.75
2023-02-12T23:59:39.149Z,32.42
